KCVW

National Data Buoy Center

Cameron, Louisiana, USA
METAR KCVW 150035Z AUTO 18005KT 10SM CLR 30/24 A2997 RMK A01
Observed Flight Rules
Aug-15 @ 00:35 UTC (32 minutes ago) Visual Flight Rules
Wind Visibility Clouds
180° at 5 knots 10 miles
  • Clear skies
Temperatures Readings
Current 30°C / 86°F
Dewpoint 24°C / 75°F
Humidity 70%
Altimeter 29.97" Hg
Pressure 1015 hPa
Elevation 1
METAR KCVW 150035Z AUTO 18005KT 10SM CLR 30/24 A2997 RMK A01
Observed Flight Rules
Aug-15 @ 00:35 UTC
(32 minutes ago)
VFR
Wind Visibility
180° at 5 knots 10 miles
Clouds
  • Clear skies
Temperature Dewpoint
30°C / 86°F 24°C / 75°F
Humidity Altimeter Pressure
70% 29.97" Hg 1015 hPa